sensor_id;sensor_type;location;lat;lon;timestamp;P1;durP1;ratioP1;P2;durP2;ratioP2
26822;SDS011;14852;51.910;8.878;2023-06-22T00:00:56;6.88;;;6.13;;
26822;SDS011;14852;51.910;8.878;2023-06-22T00:03:23;7.80;;;6.95;;
26822;SDS011;14852;51.910;8.878;2023-06-22T00:05:50;7.05;;;4.97;;
26822;SDS011;14852;51.910;8.878;2023-06-22T00:08:16;6.28;;;5.68;;
26822;SDS011;14852;51.910;8.878;2023-06-22T00:10:43;7.20;;;5.97;;
26822;SDS011;14852;51.910;8.878;2023-06-22T00:13:09;8.73;;;6.43;;
26822;SDS011;14852;51.910;8.878;2023-06-22T00:15:36;6.40;;;5.35;;
26822;SDS011;14852;51.910;8.878;2023-06-22T00:18:04;9.48;;;6.90;;
26822;SDS011;14852;51.910;8.878;2023-06-22T00:20:31;6.10;;;5.50;;
26822;SDS011;14852;51.910;8.878;2023-06-22T00:22:57;8.07;;;5.75;;
26822;SDS011;14852;51.910;8.878;2023-06-22T00:25:25;7.68;;;6.03;;
26822;SDS011;14852;51.910;8.878;2023-06-22T00:27:51;8.82;;;6.13;;
26822;SDS011;14852;51.910;8.878;2023-06-22T00:30:17;7.05;;;6.35;;
26822;SDS011;14852;51.910;8.878;2023-06-22T00:32:44;7.82;;;5.22;;
26822;SDS011;14852;51.910;8.878;2023-06-22T00:35:12;5.85;;;5.25;;
26822;SDS011;14852;51.910;8.878;2023-06-22T00:37:38;6.50;;;5.90;;
26822;SDS011;14852;51.910;8.878;2023-06-22T00:40:07;6.57;;;5.85;;
26822;SDS011;14852;51.910;8.878;2023-06-22T00:42:40;6.75;;;5.78;;
26822;SDS011;14852;51.910;8.878;2023-06-22T00:45:07;11.07;;;6.00;;
26822;SDS011;14852;51.910;8.878;2023-06-22T00:47:36;7.03;;;6.03;;
26822;SDS011;14852;51.910;8.878;2023-06-22T00:50:03;6.25;;;5.65;;
26822;SDS011;14852;51.910;8.878;2023-06-22T00:52:32;8.85;;;5.63;;
26822;SDS011;14852;51.910;8.878;2023-06-22T00:55:00;6.60;;;5.47;;
26822;SDS011;14852;51.910;8.878;2023-06-22T00:57:27;6.50;;;5.20;;
26822;SDS011;14852;51.910;8.878;2023-06-22T00:59:54;5.20;;;4.75;;
26822;SDS011;14852;51.910;8.878;2023-06-22T01:02:20;9.48;;;6.47;;
26822;SDS011;14852;51.910;8.878;2023-06-22T01:04:46;8.07;;;6.47;;
26822;SDS011;14852;51.910;8.878;2023-06-22T01:10:14;7.25;;;5.90;;
26822;SDS011;14852;51.910;8.878;2023-06-22T01:12:53;6.03;;;5.53;;
26822;SDS011;14852;51.910;8.878;2023-06-22T01:15:44;6.80;;;6.03;;
26822;SDS011;14852;51.910;8.878;2023-06-22T01:18:32;7.82;;;6.50;;
26822;SDS011;14852;51.910;8.878;2023-06-22T01:21:02;6.50;;;5.72;;
26822;SDS011;14852;51.910;8.878;2023-06-22T01:26:42;6.75;;;5.50;;
26822;SDS011;14852;51.910;8.878;2023-06-22T01:29:25;6.65;;;5.78;;
26822;SDS011;14852;51.910;8.878;2023-06-22T01:31:54;6.13;;;5.53;;
26822;SDS011;14852;51.910;8.878;2023-06-22T01:34:22;7.05;;;5.72;;
26822;SDS011;14852;51.910;8.878;2023-06-22T01:36:49;8.23;;;6.88;;
26822;SDS011;14852;51.910;8.878;2023-06-22T01:39:16;7.00;;;6.30;;
26822;SDS011;14852;51.910;8.878;2023-06-22T01:41:43;6.90;;;6.28;;
26822;SDS011;14852;51.910;8.878;2023-06-22T01:44:10;9.65;;;7.07;;
26822;SDS011;14852;51.910;8.878;2023-06-22T01:46:37;7.60;;;6.60;;
26822;SDS011;14852;51.910;8.878;2023-06-22T01:49:05;8.07;;;6.35;;
26822;SDS011;14852;51.910;8.878;2023-06-22T01:51:32;8.57;;;6.55;;
26822;SDS011;14852;51.910;8.878;2023-06-22T01:53:59;6.80;;;6.07;;
26822;SDS011;14852;51.910;8.878;2023-06-22T01:56:24;8.10;;;6.20;;
26822;SDS011;14852;51.910;8.878;2023-06-22T02:01:43;9.88;;;6.43;;
26822;SDS011;14852;51.910;8.878;2023-06-22T02:04:19;6.30;;;5.65;;
26822;SDS011;14852;51.910;8.878;2023-06-22T02:06:51;6.55;;;5.85;;
26822;SDS011;14852;51.910;8.878;2023-06-22T02:09:23;7.43;;;6.17;;
26822;SDS011;14852;51.910;8.878;2023-06-22T02:11:53;10.10;;;6.93;;
26822;SDS011;14852;51.910;8.878;2023-06-22T02:14:21;6.70;;;5.82;;
26822;SDS011;14852;51.910;8.878;2023-06-22T02:16:49;8.52;;;6.72;;
26822;SDS011;14852;51.910;8.878;2023-06-22T02:19:16;7.00;;;6.10;;
26822;SDS011;14852;51.910;8.878;2023-06-22T02:21:47;8.30;;;5.80;;
26822;SDS011;14852;51.910;8.878;2023-06-22T02:24:12;8.55;;;6.38;;
26822;SDS011;14852;51.910;8.878;2023-06-22T02:26:38;8.45;;;6.88;;
26822;SDS011;14852;51.910;8.878;2023-06-22T02:29:07;8.82;;;6.45;;
26822;SDS011;14852;51.910;8.878;2023-06-22T02:31:33;7.13;;;6.40;;
26822;SDS011;14852;51.910;8.878;2023-06-22T02:33:59;7.20;;;6.40;;
26822;SDS011;14852;51.910;8.878;2023-06-22T02:36:25;7.40;;;6.03;;
26822;SDS011;14852;51.910;8.878;2023-06-22T02:38:52;8.55;;;6.13;;
26822;SDS011;14852;51.910;8.878;2023-06-22T02:41:19;9.68;;;6.90;;
26822;SDS011;14852;51.910;8.878;2023-06-22T02:43:45;10.38;;;7.10;;
26822;SDS011;14852;51.910;8.878;2023-06-22T02:46:11;10.02;;;6.53;;
26822;SDS011;14852;51.910;8.878;2023-06-22T02:48:40;8.10;;;6.72;;
26822;SDS011;14852;51.910;8.878;2023-06-22T02:51:06;7.28;;;6.55;;
26822;SDS011;14852;51.910;8.878;2023-06-22T02:53:34;7.45;;;6.75;;
26822;SDS011;14852;51.910;8.878;2023-06-22T02:56:01;7.15;;;6.43;;
26822;SDS011;14852;51.910;8.878;2023-06-22T02:58:31;7.20;;;6.50;;
26822;SDS011;14852;51.910;8.878;2023-06-22T03:01:04;8.23;;;7.15;;
26822;SDS011;14852;51.910;8.878;2023-06-22T03:03:32;7.95;;;7.05;;
26822;SDS011;14852;51.910;8.878;2023-06-22T03:05:57;9.60;;;8.02;;
26822;SDS011;14852;51.910;8.878;2023-06-22T03:08:23;8.00;;;7.25;;
26822;SDS011;14852;51.910;8.878;2023-06-22T03:10:49;10.27;;;7.28;;
26822;SDS011;14852;51.910;8.878;2023-06-22T03:13:15;7.03;;;6.32;;
26822;SDS011;14852;51.910;8.878;2023-06-22T03:15:41;8.02;;;7.15;;
26822;SDS011;14852;51.910;8.878;2023-06-22T03:18:07;8.02;;;7.15;;
26822;SDS011;14852;51.910;8.878;2023-06-22T03:20:33;11.15;;;8.05;;
26822;SDS011;14852;51.910;8.878;2023-06-22T03:22:59;8.07;;;7.15;;
26822;SDS011;14852;51.910;8.878;2023-06-22T03:25:26;8.98;;;6.97;;
26822;SDS011;14852;51.910;8.878;2023-06-22T03:27:54;8.05;;;7.25;;
26822;SDS011;14852;51.910;8.878;2023-06-22T03:30:21;10.20;;;8.30;;
26822;SDS011;14852;51.910;8.878;2023-06-22T03:32:47;9.43;;;7.80;;
26822;SDS011;14852;51.910;8.878;2023-06-22T03:35:13;8.15;;;7.32;;
26822;SDS011;14852;51.910;8.878;2023-06-22T03:37:39;10.52;;;7.22;;
26822;SDS011;14852;51.910;8.878;2023-06-22T03:40:05;7.80;;;7.00;;
26822;SDS011;14852;51.910;8.878;2023-06-22T03:42:34;8.27;;;6.90;;
26822;SDS011;14852;51.910;8.878;2023-06-22T03:45:01;8.43;;;6.82;;
26822;SDS011;14852;51.910;8.878;2023-06-22T03:47:28;10.80;;;7.15;;
26822;SDS011;14852;51.910;8.878;2023-06-22T03:49:56;8.00;;;7.20;;
26822;SDS011;14852;51.910;8.878;2023-06-22T03:52:22;8.77;;;7.47;;
26822;SDS011;14852;51.910;8.878;2023-06-22T03:54:48;7.38;;;6.68;;
26822;SDS011;14852;51.910;8.878;2023-06-22T03:57:14;7.40;;;6.40;;
26822;SDS011;14852;51.910;8.878;2023-06-22T03:59:39;10.30;;;6.93;;
26822;SDS011;14852;51.910;8.878;2023-06-22T04:02:05;9.40;;;6.82;;
26822;SDS011;14852;51.910;8.878;2023-06-22T04:04:31;7.53;;;6.57;;
26822;SDS011;14852;51.910;8.878;2023-06-22T04:06:57;7.78;;;6.43;;
26822;SDS011;14852;51.910;8.878;2023-06-22T04:09:23;8.50;;;6.43;;
26822;SDS011;14852;51.910;8.878;2023-06-22T04:11:49;8.32;;;6.82;;
26822;SDS011;14852;51.910;8.878;2023-06-22T04:14:15;7.57;;;6.78;;
26822;SDS011;14852;51.910;8.878;2023-06-22T04:16:40;7.85;;;7.05;;
26822;SDS011;14852;51.910;8.878;2023-06-22T04:19:06;8.15;;;7.35;;
26822;SDS011;14852;51.910;8.878;2023-06-22T04:21:32;7.43;;;6.57;;
26822;SDS011;14852;51.910;8.878;2023-06-22T04:23:57;8.52;;;7.35;;
26822;SDS011;14852;51.910;8.878;2023-06-22T04:26:23;7.85;;;6.95;;
26822;SDS011;14852;51.910;8.878;2023-06-22T04:28:49;7.65;;;6.85;;
26822;SDS011;14852;51.910;8.878;2023-06-22T04:31:16;7.15;;;6.53;;
26822;SDS011;14852;51.910;8.878;2023-06-22T04:33:44;8.68;;;7.20;;
26822;SDS011;14852;51.910;8.878;2023-06-22T04:36:10;7.95;;;7.10;;
26822;SDS011;14852;51.910;8.878;2023-06-22T04:38:38;8.32;;;7.25;;
26822;SDS011;14852;51.910;8.878;2023-06-22T04:41:05;8.73;;;7.70;;
26822;SDS011;14852;51.910;8.878;2023-06-22T04:43:31;10.25;;;8.60;;
26822;SDS011;14852;51.910;8.878;2023-06-22T04:45:59;9.85;;;8.00;;
26822;SDS011;14852;51.910;8.878;2023-06-22T04:48:28;7.70;;;6.78;;
26822;SDS011;14852;51.910;8.878;2023-06-22T04:50:57;8.70;;;7.55;;
26822;SDS011;14852;51.910;8.878;2023-06-22T04:53:28;8.07;;;7.20;;
26822;SDS011;14852;51.910;8.878;2023-06-22T04:55:55;9.65;;;8.05;;
26822;SDS011;14852;51.910;8.878;2023-06-22T04:58:21;9.80;;;8.30;;
26822;SDS011;14852;51.910;8.878;2023-06-22T05:00:47;9.02;;;8.10;;
26822;SDS011;14852;51.910;8.878;2023-06-22T05:03:13;8.70;;;7.10;;
26822;SDS011;14852;51.910;8.878;2023-06-22T05:05:38;8.02;;;6.93;;
26822;SDS011;14852;51.910;8.878;2023-06-22T05:08:04;8.43;;;7.18;;
26822;SDS011;14852;51.910;8.878;2023-06-22T05:10:31;8.35;;;6.78;;
26822;SDS011;14852;51.910;8.878;2023-06-22T05:12:58;8.15;;;7.35;;
26822;SDS011;14852;51.910;8.878;2023-06-22T05:15:24;9.77;;;8.52;;
26822;SDS011;14852;51.910;8.878;2023-06-22T05:17:53;8.40;;;7.50;;
26822;SDS011;14852;51.910;8.878;2023-06-22T05:20:19;9.05;;;8.02;;
26822;SDS011;14852;51.910;8.878;2023-06-22T05:22:44;8.25;;;7.45;;
26822;SDS011;14852;51.910;8.878;2023-06-22T05:25:10;7.95;;;7.18;;
26822;SDS011;14852;51.910;8.878;2023-06-22T05:27:36;9.85;;;8.60;;
26822;SDS011;14852;51.910;8.878;2023-06-22T05:30:08;9.57;;;8.25;;
26822;SDS011;14852;51.910;8.878;2023-06-22T05:32:35;9.48;;;8.02;;
26822;SDS011;14852;51.910;8.878;2023-06-22T05:35:01;8.75;;;7.95;;
26822;SDS011;14852;51.910;8.878;2023-06-22T05:37:31;8.77;;;7.88;;
26822;SDS011;14852;51.910;8.878;2023-06-22T05:39:56;10.25;;;8.25;;
26822;SDS011;14852;51.910;8.878;2023-06-22T05:42:22;9.30;;;8.05;;
26822;SDS011;14852;51.910;8.878;2023-06-22T05:44:50;8.50;;;7.57;;
26822;SDS011;14852;51.910;8.878;2023-06-22T05:47:18;9.23;;;7.82;;
26822;SDS011;14852;51.910;8.878;2023-06-22T05:49:44;8.75;;;7.88;;
26822;SDS011;14852;51.910;8.878;2023-06-22T05:52:09;11.98;;;8.25;;
26822;SDS011;14852;51.910;8.878;2023-06-22T05:54:35;10.75;;;9.65;;
26822;SDS011;14852;51.910;8.878;2023-06-22T05:57:04;10.73;;;7.93;;
26822;SDS011;14852;51.910;8.878;2023-06-22T05:59:30;8.57;;;7.53;;
26822;SDS011;14852;51.910;8.878;2023-06-22T06:01:55;9.13;;;8.32;;
26822;SDS011;14852;51.910;8.878;2023-06-22T06:04:21;9.65;;;7.90;;
26822;SDS011;14852;51.910;8.878;2023-06-22T06:06:47;9.65;;;8.75;;
26822;SDS011;14852;51.910;8.878;2023-06-22T06:09:13;8.05;;;7.30;;
26822;SDS011;14852;51.910;8.878;2023-06-22T06:11:39;10.38;;;8.45;;
26822;SDS011;14852;51.910;8.878;2023-06-22T06:14:05;9.80;;;7.65;;
26822;SDS011;14852;51.910;8.878;2023-06-22T06:16:31;8.68;;;7.78;;
26822;SDS011;14852;51.910;8.878;2023-06-22T06:18:57;8.55;;;7.72;;
26822;SDS011;14852;51.910;8.878;2023-06-22T06:21:23;7.90;;;7.15;;
26822;SDS011;14852;51.910;8.878;2023-06-22T06:23:49;8.13;;;7.43;;
26822;SDS011;14852;51.910;8.878;2023-06-22T06:26:15;9.65;;;7.93;;
26822;SDS011;14852;51.910;8.878;2023-06-22T06:28:42;9.93;;;8.88;;
26822;SDS011;14852;51.910;8.878;2023-06-22T06:31:08;9.88;;;8.88;;
26822;SDS011;14852;51.910;8.878;2023-06-22T06:33:34;9.10;;;8.20;;
26822;SDS011;14852;51.910;8.878;2023-06-22T06:36:01;13.15;;;8.45;;
26822;SDS011;14852;51.910;8.878;2023-06-22T06:38:28;9.85;;;8.85;;
26822;SDS011;14852;51.910;8.878;2023-06-22T06:40:55;10.07;;;9.13;;
26822;SDS011;14852;51.910;8.878;2023-06-22T06:43:21;9.82;;;8.98;;
26822;SDS011;14852;51.910;8.878;2023-06-22T06:45:48;12.25;;;9.80;;
26822;SDS011;14852;51.910;8.878;2023-06-22T06:48:14;9.93;;;8.80;;
26822;SDS011;14852;51.910;8.878;2023-06-22T06:50:40;9.68;;;8.80;;
26822;SDS011;14852;51.910;8.878;2023-06-22T06:53:05;10.27;;;9.18;;
26822;SDS011;14852;51.910;8.878;2023-06-22T06:55:31;10.50;;;9.60;;
26822;SDS011;14852;51.910;8.878;2023-06-22T06:58:00;10.68;;;9.57;;
26822;SDS011;14852;51.910;8.878;2023-06-22T07:00:27;10.93;;;9.93;;
26822;SDS011;14852;51.910;8.878;2023-06-22T07:02:53;11.20;;;10.20;;
26822;SDS011;14852;51.910;8.878;2023-06-22T07:05:19;9.90;;;9.02;;
26822;SDS011;14852;51.910;8.878;2023-06-22T07:07:45;11.05;;;9.95;;
26822;SDS011;14852;51.910;8.878;2023-06-22T07:10:11;10.93;;;9.88;;
26822;SDS011;14852;51.910;8.878;2023-06-22T07:12:36;10.70;;;9.73;;
26822;SDS011;14852;51.910;8.878;2023-06-22T07:15:06;11.15;;;10.05;;
26822;SDS011;14852;51.910;8.878;2023-06-22T07:17:34;13.40;;;9.65;;
26822;SDS011;14852;51.910;8.878;2023-06-22T07:20:00;11.35;;;10.25;;
26822;SDS011;14852;51.910;8.878;2023-06-22T07:22:33;10.55;;;9.45;;
26822;SDS011;14852;51.910;8.878;2023-06-22T07:24:59;10.27;;;9.27;;
26822;SDS011;14852;51.910;8.878;2023-06-22T07:27:26;10.68;;;9.68;;
26822;SDS011;14852;51.910;8.878;2023-06-22T07:29:52;11.15;;;10.05;;
26822;SDS011;14852;51.910;8.878;2023-06-22T07:32:17;11.30;;;10.10;;
26822;SDS011;14852;51.910;8.878;2023-06-22T07:34:43;11.25;;;10.02;;
26822;SDS011;14852;51.910;8.878;2023-06-22T07:37:09;11.45;;;9.80;;
26822;SDS011;14852;51.910;8.878;2023-06-22T07:39:35;11.15;;;10.07;;
26822;SDS011;14852;51.910;8.878;2023-06-22T07:42:02;11.90;;;10.80;;
26822;SDS011;14852;51.910;8.878;2023-06-22T07:44:28;11.05;;;10.05;;
26822;SDS011;14852;51.910;8.878;2023-06-22T07:46:54;11.85;;;10.75;;
26822;SDS011;14852;51.910;8.878;2023-06-22T07:49:20;11.70;;;10.57;;
26822;SDS011;14852;51.910;8.878;2023-06-22T07:51:46;12.30;;;11.07;;
26822;SDS011;14852;51.910;8.878;2023-06-22T07:54:11;11.02;;;10.02;;
26822;SDS011;14852;51.910;8.878;2023-06-22T07:56:37;11.63;;;10.50;;
26822;SDS011;14852;51.910;8.878;2023-06-22T07:59:03;12.82;;;11.57;;
26822;SDS011;14852;51.910;8.878;2023-06-22T08:01:29;11.50;;;10.32;;
26822;SDS011;14852;51.910;8.878;2023-06-22T08:03:55;12.23;;;11.13;;
26822;SDS011;14852;51.910;8.878;2023-06-22T08:06:20;12.98;;;11.63;;
26822;SDS011;14852;51.910;8.878;2023-06-22T08:08:46;12.27;;;11.18;;
26822;SDS011;14852;51.910;8.878;2023-06-22T08:11:17;12.30;;;11.02;;
26822;SDS011;14852;51.910;8.878;2023-06-22T08:13:43;12.50;;;11.18;;
26822;SDS011;14852;51.910;8.878;2023-06-22T08:16:09;13.23;;;11.82;;
26822;SDS011;14852;51.910;8.878;2023-06-22T08:18:35;12.93;;;11.63;;
26822;SDS011;14852;51.910;8.878;2023-06-22T08:21:01;12.40;;;11.18;;
26822;SDS011;14852;51.910;8.878;2023-06-22T08:23:26;12.02;;;10.80;;
26822;SDS011;14852;51.910;8.878;2023-06-22T08:25:52;11.65;;;10.40;;
26822;SDS011;14852;51.910;8.878;2023-06-22T08:28:18;11.85;;;10.75;;
26822;SDS011;14852;51.910;8.878;2023-06-22T08:30:44;12.55;;;11.45;;
26822;SDS011;14852;51.910;8.878;2023-06-22T08:33:09;12.98;;;11.85;;
26822;SDS011;14852;51.910;8.878;2023-06-22T08:35:35;10.82;;;9.93;;
26822;SDS011;14852;51.910;8.878;2023-06-22T08:38:01;12.00;;;10.80;;
26822;SDS011;14852;51.910;8.878;2023-06-22T08:40:27;12.65;;;11.38;;
26822;SDS011;14852;51.910;8.878;2023-06-22T08:42:54;12.13;;;11.13;;
26822;SDS011;14852;51.910;8.878;2023-06-22T08:45:20;11.65;;;10.38;;
26822;SDS011;14852;51.910;8.878;2023-06-22T08:47:45;12.38;;;11.35;;
26822;SDS011;14852;51.910;8.878;2023-06-22T08:50:11;11.45;;;10.32;;
26822;SDS011;14852;51.910;8.878;2023-06-22T08:52:38;10.68;;;9.68;;
26822;SDS011;14852;51.910;8.878;2023-06-22T08:55:08;11.30;;;10.30;;
26822;SDS011;14852;51.910;8.878;2023-06-22T08:57:34;11.98;;;10.88;;
26822;SDS011;14852;51.910;8.878;2023-06-22T09:00:04;11.90;;;10.90;;
26822;SDS011;14852;51.910;8.878;2023-06-22T09:02:44;12.80;;;11.60;;
26822;SDS011;14852;51.910;8.878;2023-06-22T09:05:10;11.68;;;10.68;;
26822;SDS011;14852;51.910;8.878;2023-06-22T09:07:36;11.52;;;10.52;;
26822;SDS011;14852;51.910;8.878;2023-06-22T09:10:02;11.48;;;10.38;;
26822;SDS011;14852;51.910;8.878;2023-06-22T09:12:32;11.90;;;10.80;;
26822;SDS011;14852;51.910;8.878;2023-06-22T09:14:59;12.38;;;11.38;;
26822;SDS011;14852;51.910;8.878;2023-06-22T09:17:25;11.50;;;10.55;;
26822;SDS011;14852;51.910;8.878;2023-06-22T09:19:51;9.73;;;8.73;;
26822;SDS011;14852;51.910;8.878;2023-06-22T09:22:17;10.18;;;9.23;;
26822;SDS011;14852;51.910;8.878;2023-06-22T09:24:43;11.23;;;10.05;;
26822;SDS011;14852;51.910;8.878;2023-06-22T09:27:09;11.10;;;10.10;;
26822;SDS011;14852;51.910;8.878;2023-06-22T09:29:34;10.05;;;9.25;;
26822;SDS011;14852;51.910;8.878;2023-06-22T09:32:00;11.43;;;10.15;;
26822;SDS011;14852;51.910;8.878;2023-06-22T09:34:26;10.48;;;9.50;;
26822;SDS011;14852;51.910;8.878;2023-06-22T09:36:52;10.35;;;9.23;;
26822;SDS011;14852;51.910;8.878;2023-06-22T09:39:18;10.23;;;9.20;;
26822;SDS011;14852;51.910;8.878;2023-06-22T09:41:44;9.95;;;9.05;;
26822;SDS011;14852;51.910;8.878;2023-06-22T09:44:10;10.70;;;9.80;;
26822;SDS011;14852;51.910;8.878;2023-06-22T09:46:35;9.48;;;8.68;;
26822;SDS011;14852;51.910;8.878;2023-06-22T09:49:01;10.55;;;9.43;;
26822;SDS011;14852;51.910;8.878;2023-06-22T09:51:27;9.98;;;9.07;;
26822;SDS011;14852;51.910;8.878;2023-06-22T09:53:53;9.85;;;9.05;;
26822;SDS011;14852;51.910;8.878;2023-06-22T09:56:19;10.27;;;9.00;;
26822;SDS011;14852;51.910;8.878;2023-06-22T09:58:45;9.25;;;8.50;;
26822;SDS011;14852;51.910;8.878;2023-06-22T10:01:11;8.70;;;7.95;;
26822;SDS011;14852;51.910;8.878;2023-06-22T10:03:41;9.38;;;8.60;;
26822;SDS011;14852;51.910;8.878;2023-06-22T10:06:07;8.48;;;7.28;;
26822;SDS011;14852;51.910;8.878;2023-06-22T10:08:34;8.75;;;7.90;;
26822;SDS011;14852;51.910;8.878;2023-06-22T10:11:00;8.48;;;7.70;;
26822;SDS011;14852;51.910;8.878;2023-06-22T10:13:26;8.65;;;7.85;;
26822;SDS011;14852;51.910;8.878;2023-06-22T10:15:52;9.52;;;7.65;;
26822;SDS011;14852;51.910;8.878;2023-06-22T10:18:18;8.77;;;8.00;;
26822;SDS011;14852;51.910;8.878;2023-06-22T10:20:48;8.30;;;7.53;;
26822;SDS011;14852;51.910;8.878;2023-06-22T10:25:43;9.07;;;8.25;;
26822;SDS011;14852;51.910;8.878;2023-06-22T10:28:08;9.25;;;8.45;;
26822;SDS011;14852;51.910;8.878;2023-06-22T10:30:34;9.75;;;8.85;;
26822;SDS011;14852;51.910;8.878;2023-06-22T10:33:00;9.52;;;8.63;;
26822;SDS011;14852;51.910;8.878;2023-06-22T10:35:25;10.73;;;9.73;;
26822;SDS011;14852;51.910;8.878;2023-06-22T10:37:52;9.43;;;8.52;;
26822;SDS011;14852;51.910;8.878;2023-06-22T10:40:19;9.07;;;8.25;;
26822;SDS011;14852;51.910;8.878;2023-06-22T10:42:45;9.35;;;8.35;;
26822;SDS011;14852;51.910;8.878;2023-06-22T10:45:11;8.57;;;7.78;;
26822;SDS011;14852;51.910;8.878;2023-06-22T10:47:37;8.55;;;7.63;;
26822;SDS011;14852;51.910;8.878;2023-06-22T10:50:03;8.00;;;7.32;;
26822;SDS011;14852;51.910;8.878;2023-06-22T10:52:30;8.98;;;8.02;;
26822;SDS011;14852;51.910;8.878;2023-06-22T10:54:56;8.57;;;7.78;;
26822;SDS011;14852;51.910;8.878;2023-06-22T10:57:21;7.28;;;6.60;;
26822;SDS011;14852;51.910;8.878;2023-06-22T10:59:47;9.07;;;8.27;;
26822;SDS011;14852;51.910;8.878;2023-06-22T11:02:13;8.30;;;7.55;;
26822;SDS011;14852;51.910;8.878;2023-06-22T11:04:39;8.18;;;7.47;;
26822;SDS011;14852;51.910;8.878;2023-06-22T11:07:05;7.88;;;7.13;;
26822;SDS011;14852;51.910;8.878;2023-06-22T11:09:31;8.15;;;7.45;;
26822;SDS011;14852;51.910;8.878;2023-06-22T11:11:57;7.50;;;6.80;;
26822;SDS011;14852;51.910;8.878;2023-06-22T11:14:23;8.07;;;7.38;;
26822;SDS011;14852;51.910;8.878;2023-06-22T11:16:50;8.50;;;7.70;;
26822;SDS011;14852;51.910;8.878;2023-06-22T11:19:16;7.85;;;7.15;;
26822;SDS011;14852;51.910;8.878;2023-06-22T11:21:42;7.25;;;6.63;;
26822;SDS011;14852;51.910;8.878;2023-06-22T11:24:08;7.95;;;7.25;;
26822;SDS011;14852;51.910;8.878;2023-06-22T11:26:34;7.20;;;6.50;;
26822;SDS011;14852;51.910;8.878;2023-06-22T11:29:00;7.18;;;6.47;;
26822;SDS011;14852;51.910;8.878;2023-06-22T11:31:26;7.93;;;7.22;;
26822;SDS011;14852;51.910;8.878;2023-06-22T11:33:52;7.10;;;6.50;;
26822;SDS011;14852;51.910;8.878;2023-06-22T11:36:18;8.18;;;7.13;;
26822;SDS011;14852;51.910;8.878;2023-06-22T11:38:44;8.20;;;7.50;;
26822;SDS011;14852;51.910;8.878;2023-06-22T11:41:10;7.93;;;7.22;;
26822;SDS011;14852;51.910;8.878;2023-06-22T11:43:36;7.30;;;6.70;;
26822;SDS011;14852;51.910;8.878;2023-06-22T11:46:02;7.95;;;7.25;;
26822;SDS011;14852;51.910;8.878;2023-06-22T11:48:29;8.27;;;7.55;;
26822;SDS011;14852;51.910;8.878;2023-06-22T11:50:55;7.70;;;7.00;;
26822;SDS011;14852;51.910;8.878;2023-06-22T11:53:21;8.85;;;8.05;;
26822;SDS011;14852;51.910;8.878;2023-06-22T11:55:50;8.43;;;7.68;;
26822;SDS011;14852;51.910;8.878;2023-06-22T11:58:16;8.95;;;8.10;;
26822;SDS011;14852;51.910;8.878;2023-06-22T12:00:42;7.35;;;6.65;;
26822;SDS011;14852;51.910;8.878;2023-06-22T12:03:08;8.27;;;7.57;;
26822;SDS011;14852;51.910;8.878;2023-06-22T12:05:34;8.23;;;7.53;;
26822;SDS011;14852;51.910;8.878;2023-06-22T12:08:00;7.80;;;7.00;;
26822;SDS011;14852;51.910;8.878;2023-06-22T12:10:26;9.70;;;7.65;;
26822;SDS011;14852;51.910;8.878;2023-06-22T12:12:53;8.23;;;7.53;;
26822;SDS011;14852;51.910;8.878;2023-06-22T12:15:19;7.05;;;6.45;;
26822;SDS011;14852;51.910;8.878;2023-06-22T12:17:45;7.93;;;7.13;;
26822;SDS011;14852;51.910;8.878;2023-06-22T12:20:13;8.13;;;7.43;;
26822;SDS011;14852;51.910;8.878;2023-06-22T12:22:39;7.63;;;7.03;;
26822;SDS011;14852;51.910;8.878;2023-06-22T12:25:06;8.65;;;7.95;;
26822;SDS011;14852;51.910;8.878;2023-06-22T12:27:35;8.90;;;8.07;;
26822;SDS011;14852;51.910;8.878;2023-06-22T12:30:03;8.13;;;7.40;;
26822;SDS011;14852;51.910;8.878;2023-06-22T12:32:30;10.63;;;8.05;;
26822;SDS011;14852;51.910;8.878;2023-06-22T12:34:56;8.35;;;7.55;;
26822;SDS011;14852;51.910;8.878;2023-06-22T12:37:22;8.48;;;7.68;;
26822;SDS011;14852;51.910;8.878;2023-06-22T12:39:48;7.47;;;6.80;;
26822;SDS011;14852;51.910;8.878;2023-06-22T12:42:17;9.05;;;8.32;;
26822;SDS011;14852;51.910;8.878;2023-06-22T12:44:43;8.80;;;8.00;;
26822;SDS011;14852;51.910;8.878;2023-06-22T12:47:09;8.13;;;7.47;;
26822;SDS011;14852;51.910;8.878;2023-06-22T12:49:35;8.02;;;7.03;;
26822;SDS011;14852;51.910;8.878;2023-06-22T12:52:01;8.75;;;8.05;;
26822;SDS011;14852;51.910;8.878;2023-06-22T12:54:27;8.00;;;7.15;;
26822;SDS011;14852;51.910;8.878;2023-06-22T12:56:54;10.10;;;8.55;;
26822;SDS011;14852;51.910;8.878;2023-06-22T12:59:20;8.57;;;7.88;;
26822;SDS011;14852;51.910;8.878;2023-06-22T13:01:46;8.85;;;8.05;;
26822;SDS011;14852;51.910;8.878;2023-06-22T13:04:12;8.57;;;7.78;;
26822;SDS011;14852;51.910;8.878;2023-06-22T13:06:40;9.57;;;8.00;;
26822;SDS011;14852;51.910;8.878;2023-06-22T13:09:07;9.65;;;8.75;;
26822;SDS011;14852;51.910;8.878;2023-06-22T13:11:34;8.88;;;8.07;;
26822;SDS011;14852;51.910;8.878;2023-06-22T13:14:00;9.80;;;8.90;;
26822;SDS011;14852;51.910;8.878;2023-06-22T13:16:26;10.73;;;8.48;;
26822;SDS011;14852;51.910;8.878;2023-06-22T13:18:52;12.65;;;9.65;;
26822;SDS011;14852;51.910;8.878;2023-06-22T13:21:18;10.23;;;9.32;;
26822;SDS011;14852;51.910;8.878;2023-06-22T13:23:43;9.77;;;8.98;;
26822;SDS011;14852;51.910;8.878;2023-06-22T13:26:09;10.35;;;9.38;;
26822;SDS011;14852;51.910;8.878;2023-06-22T13:28:35;10.43;;;9.52;;
26822;SDS011;14852;51.910;8.878;2023-06-22T13:31:01;11.43;;;9.88;;
26822;SDS011;14852;51.910;8.878;2023-06-22T13:33:26;11.93;;;10.93;;
26822;SDS011;14852;51.910;8.878;2023-06-22T13:35:52;11.50;;;10.38;;
26822;SDS011;14852;51.910;8.878;2023-06-22T13:38:18;10.35;;;9.38;;
26822;SDS011;14852;51.910;8.878;2023-06-22T13:40:44;10.32;;;9.35;;
26822;SDS011;14852;51.910;8.878;2023-06-22T13:43:09;10.70;;;9.65;;
26822;SDS011;14852;51.910;8.878;2023-06-22T13:45:35;13.23;;;10.75;;
26822;SDS011;14852;51.910;8.878;2023-06-22T13:48:01;10.88;;;9.82;;
26822;SDS011;14852;51.910;8.878;2023-06-22T13:50:27;10.52;;;9.63;;
26822;SDS011;14852;51.910;8.878;2023-06-22T13:52:54;10.75;;;9.65;;
26822;SDS011;14852;51.910;8.878;2023-06-22T13:55:20;10.65;;;9.65;;
26822;SDS011;14852;51.910;8.878;2023-06-22T13:57:48;9.63;;;8.77;;
26822;SDS011;14852;51.910;8.878;2023-06-22T14:00:17;9.65;;;8.63;;
26822;SDS011;14852;51.910;8.878;2023-06-22T14:02:43;9.82;;;8.48;;
26822;SDS011;14852;51.910;8.878;2023-06-22T14:05:09;10.18;;;9.18;;
26822;SDS011;14852;51.910;8.878;2023-06-22T14:07:36;10.80;;;9.68;;
26822;SDS011;14852;51.910;8.878;2023-06-22T14:10:02;10.00;;;9.10;;
26822;SDS011;14852;51.910;8.878;2023-06-22T14:12:29;10.13;;;9.10;;
26822;SDS011;14852;51.910;8.878;2023-06-22T14:14:55;10.07;;;9.18;;
26822;SDS011;14852;51.910;8.878;2023-06-22T14:17:22;10.25;;;9.00;;
26822;SDS011;14852;51.910;8.878;2023-06-22T14:19:50;11.73;;;9.73;;
26822;SDS011;14852;51.910;8.878;2023-06-22T14:22:21;10.30;;;9.40;;
26822;SDS011;14852;51.910;8.878;2023-06-22T14:24:47;10.15;;;9.10;;
26822;SDS011;14852;51.910;8.878;2023-06-22T14:27:14;11.73;;;10.63;;
26822;SDS011;14852;51.910;8.878;2023-06-22T14:29:40;11.70;;;10.57;;
26822;SDS011;14852;51.910;8.878;2023-06-22T14:32:06;10.77;;;9.73;;
26822;SDS011;14852;51.910;8.878;2023-06-22T14:34:33;10.32;;;9.38;;
26822;SDS011;14852;51.910;8.878;2023-06-22T14:37:01;10.65;;;9.55;;
26822;SDS011;14852;51.910;8.878;2023-06-22T14:39:27;10.05;;;9.05;;
26822;SDS011;14852;51.910;8.878;2023-06-22T14:41:53;12.18;;;9.55;;
26822;SDS011;14852;51.910;8.878;2023-06-22T14:44:19;11.38;;;10.20;;
26822;SDS011;14852;51.910;8.878;2023-06-22T14:46:45;9.57;;;8.60;;
26822;SDS011;14852;51.910;8.878;2023-06-22T14:49:11;10.40;;;9.43;;